createdAt,value
2016-12-21T00:00:14.222Z,-3.13
2016-12-21T00:01:24.012Z,-3.09
2016-12-21T00:02:33.495Z,-3.05
2016-12-21T00:03:43.418Z,-3.08
2016-12-21T00:04:53.221Z,-3.02
2016-12-21T00:06:03.038Z,-2.94
2016-12-21T00:07:12.817Z,-2.95
2016-12-21T00:08:22.551Z,-2.92
2016-12-21T00:09:32.027Z,-3.04
2016-12-21T00:10:42.024Z,-3.1
2016-12-21T00:11:51.814Z,-3.02
2016-12-21T00:13:01.764Z,-2.97
2016-12-21T00:14:11.539Z,-2.98
2016-12-21T00:15:21.318Z,-2.98
2016-12-21T00:16:31.089Z,-3.01
2016-12-21T00:17:40.572Z,-3.04
2016-12-21T00:18:50.382Z,-2.97
2016-12-21T00:20:00.186Z,-2.97
2016-12-21T00:21:10.082Z,-3.02
2016-12-21T00:22:19.565Z,-3.08
2016-12-21T00:23:29.175Z,-3.04
2016-12-21T00:24:39.024Z,-3.1
2016-12-21T00:25:48.848Z,-3.1
2016-12-21T00:26:58.633Z,-3.13
2016-12-21T00:28:08.430Z,-3.09
2016-12-21T00:29:17.904Z,-3.01
2016-12-21T00:30:27.880Z,-3.02
2016-12-21T00:31:37.673Z,-3.1
2016-12-21T00:32:47.473Z,-3.12
2016-12-21T00:33:57.106Z,-3.12
2016-12-21T00:35:06.954Z,-3.15
2016-12-21T00:36:16.738Z,-3.12
2016-12-21T00:37:26.213Z,-3.08
2016-12-21T00:38:35.988Z,-3.09
2016-12-21T00:39:45.498Z,-3.1
2016-12-21T00:40:55.301Z,-3.02
2016-12-21T00:42:05.113Z,-2.95
2016-12-21T00:43:14.922Z,-2.98
2016-12-21T00:44:24.700Z,-2.91
2016-12-21T00:45:34.230Z,-2.94
2016-12-21T00:46:43.739Z,-2.84
2016-12-21T00:47:53.240Z,-2.94
2016-12-21T00:49:02.742Z,-2.91
2016-12-21T00:50:11.921Z,-2.91
2016-12-21T00:51:21.405Z,-2.97
2016-12-21T00:52:30.868Z,-3.04
2016-12-21T00:53:40.354Z,-2.98
2016-12-21T00:54:50.338Z,-3.05
2016-12-21T00:56:00.125Z,-3.01
2016-12-21T00:57:09.730Z,-3.04
2016-12-21T00:58:19.504Z,-3.13
2016-12-21T00:59:29.332Z,-3.16
2016-12-21T01:00:38.830Z,-3.17
2016-12-21T01:01:48.614Z,-3.26
2016-12-21T01:02:58.090Z,-3.22
2016-12-21T01:04:07.894Z,-3.28
2016-12-21T01:05:17.379Z,-3.2
2016-12-21T01:06:26.819Z,-3.23
2016-12-21T01:07:36.823Z,-3.22
2016-12-21T01:08:46.099Z,-3.3
2016-12-21T01:09:55.958Z,-3.31
2016-12-21T01:11:05.737Z,-3.35
2016-12-21T01:12:15.208Z,-3.31
2016-12-21T01:13:25.039Z,-3.38
2016-12-21T01:14:34.517Z,-3.27
2016-12-21T01:15:43.679Z,-3.22
2016-12-21T01:16:53.528Z,-3.1
2016-12-21T01:18:03.035Z,-2.97
2016-12-21T01:19:12.580Z,-2.88
2016-12-21T01:20:22.043Z,-2.97
2016-12-21T01:21:31.572Z,-2.91
2016-12-21T01:22:41.049Z,-2.89
2016-12-21T01:23:50.529Z,-2.94
2016-12-21T01:24:59.733Z,-2.84
2016-12-21T01:26:09.567Z,-2.94
2016-12-21T01:27:19.345Z,-2.84
2016-12-21T01:28:29.128Z,-2.81
2016-12-21T01:29:38.683Z,-2.76
2016-12-21T01:30:48.463Z,-2.73
2016-12-21T01:31:58.282Z,-2.64
2016-12-21T01:33:08.053Z,-2.65
2016-12-21T01:34:17.838Z,-2.7
2016-12-21T01:35:27.301Z,-2.61
2016-12-21T01:36:37.084Z,-2.65
2016-12-21T01:37:46.865Z,-2.64
2016-12-21T01:38:56.504Z,-2.73
2016-12-21T01:40:06.290Z,-2.71
2016-12-21T01:41:16.139Z,-2.81
2016-12-21T01:42:25.944Z,-2.83
2016-12-21T01:43:35.738Z,-2.83
2016-12-21T01:44:45.562Z,-2.84
2016-12-21T01:45:55.061Z,-2.88
2016-12-21T01:47:04.539Z,-2.81
2016-12-21T01:48:14.365Z,-2.91
2016-12-21T01:49:24.157Z,-2.91
2016-12-21T01:50:33.630Z,-2.88
2016-12-21T01:51:43.506Z,-2.88
2016-12-21T01:52:53.305Z,-2.91
2016-12-21T01:54:03.128Z,-2.97
2016-12-21T01:55:12.622Z,-2.99
2016-12-21T01:56:22.173Z,-3.09
2016-12-21T01:57:31.400Z,-3.01
2016-12-21T01:58:41.223Z,-2.92
2016-12-21T01:59:51.063Z,-2.94
2016-12-21T02:01:00.858Z,-2.94
2016-12-21T02:02:10.330Z,-2.97
2016-12-21T02:03:20.117Z,-2.88
2016-12-21T02:04:29.627Z,-2.92
2016-12-21T02:05:38.792Z,-2.92
2016-12-21T02:06:47.687Z,-2.89
2016-12-21T02:07:57.528Z,-2.94
2016-12-21T02:09:07.349Z,-2.88
2016-12-21T02:10:16.931Z,-2.91
2016-12-21T02:11:26.403Z,-2.88
2016-12-21T02:12:35.926Z,-2.91
2016-12-21T02:13:45.708Z,-2.89
2016-12-21T02:14:54.890Z,-2.86
2016-12-21T02:16:04.701Z,-2.83
2016-12-21T02:17:13.882Z,-2.76
2016-12-21T02:18:23.356Z,-2.73
2016-12-21T02:19:33.138Z,-2.77
2016-12-21T02:20:42.933Z,-2.76
2016-12-21T02:21:52.436Z,-2.73
2016-12-21T02:23:01.915Z,-2.79
2016-12-21T02:24:11.728Z,-2.76
2016-12-21T02:25:21.499Z,-2.73
2016-12-21T02:26:31.411Z,-2.76
2016-12-21T02:27:41.406Z,-2.8
2016-12-21T02:28:51.234Z,-2.77
2016-12-21T02:30:01.079Z,-2.76
2016-12-21T02:31:10.574Z,-2.73
2016-12-21T02:32:20.462Z,-2.7
2016-12-21T02:33:29.932Z,-2.65
2016-12-21T02:34:39.747Z,-2.77
2016-12-21T02:35:49.237Z,-2.58
2016-12-21T02:36:59.169Z,-2.61
2016-12-21T02:38:08.689Z,-2.61
2016-12-21T02:39:18.554Z,-2.58
2016-12-21T02:40:28.425Z,-2.55
2016-12-21T02:41:37.617Z,-2.52
2016-12-21T02:42:47.083Z,-2.54
2016-12-21T02:43:56.888Z,-2.57
2016-12-21T02:45:06.687Z,-2.58
2016-12-21T02:46:16.536Z,-2.47
2016-12-21T02:47:26.357Z,-2.43
2016-12-21T02:48:36.155Z,-2.37
2016-12-21T02:49:45.932Z,-2.42
2016-12-21T02:50:55.726Z,-2.36
2016-12-21T02:52:05.193Z,-2.42
2016-12-21T02:53:15.016Z,-2.36
2016-12-21T02:54:24.834Z,-2.55
2016-12-21T02:55:34.350Z,-2.61
2016-12-21T02:56:43.857Z,-2.7
2016-12-21T02:57:53.693Z,-2.52
2016-12-21T02:59:03.168Z,-2.57
2016-12-21T03:00:12.711Z,-2.58
2016-12-21T03:01:22.486Z,-2.52
2016-12-21T03:02:32.079Z,-2.52
2016-12-21T03:03:41.545Z,-2.52
2016-12-21T03:04:51.384Z,-2.44
2016-12-21T03:06:00.919Z,-2.37
2016-12-21T03:07:10.405Z,-2.42
2016-12-21T03:08:19.873Z,-2.25
2016-12-21T03:09:29.653Z,-2.24
2016-12-21T03:10:39.122Z,-2.26
2016-12-21T03:11:48.594Z,-2.32
2016-12-21T03:12:58.094Z,-2.29
2016-12-21T03:14:07.618Z,-2.33
2016-12-21T03:15:17.112Z,-2.32
2016-12-21T03:16:26.728Z,-2.29
2016-12-21T03:17:35.904Z,-2.32
2016-12-21T03:18:45.793Z,-2.29
2016-12-21T03:19:55.575Z,-2.26
2016-12-21T03:21:04.889Z,-2.28
2016-12-21T03:22:14.371Z,-2.34
2016-12-21T03:23:23.890Z,-2.33
2016-12-21T03:24:32.828Z,-2.34
2016-12-21T03:25:42.632Z,-2.29
2016-12-21T03:26:52.423Z,-2.29
2016-12-21T03:28:02.236Z,-2.22
2016-12-21T03:29:11.777Z,-2.21
2016-12-21T03:30:21.554Z,-2.14
2016-12-21T03:31:31.066Z,-2.08
2016-12-21T03:32:40.587Z,-2.08
2016-12-21T03:33:50.546Z,-2.19
2016-12-21T03:35:00.329Z,-2.24
2016-12-21T03:36:09.895Z,-2.25
2016-12-21T03:37:19.764Z,-2.26
2016-12-21T03:38:29.576Z,-2.33
2016-12-21T03:39:39.385Z,-2.26
2016-12-21T03:40:49.214Z,-2.36
2016-12-21T03:41:58.679Z,-2.32
2016-12-21T03:43:08.463Z,-2.26
2016-12-21T03:44:17.928Z,-2.22
2016-12-21T03:45:27.760Z,-2.18
2016-12-21T03:46:36.954Z,-2.16
2016-12-21T03:47:46.896Z,-2.12
2016-12-21T03:48:56.666Z,-2.16
2016-12-21T03:50:06.473Z,-2.08
2016-12-21T03:51:15.952Z,-2.24
2016-12-21T03:52:25.445Z,-2.19
2016-12-21T03:53:34.661Z,-2.22
2016-12-21T03:54:44.172Z,-2.22
2016-12-21T03:55:54.033Z,-2.21
2016-12-21T03:57:03.807Z,-2.26
2016-12-21T03:58:13.619Z,-2.28
2016-12-21T03:59:22.795Z,-2.25
2016-12-21T04:00:32.275Z,-2.21
2016-12-21T04:01:42.093Z,-2.16
2016-12-21T04:02:51.714Z,-2.18
2016-12-21T04:04:01.508Z,-2.12
2016-12-21T04:05:10.980Z,-2.18
2016-12-21T04:06:20.763Z,-2.16
2016-12-21T04:07:30.253Z,-2.08
2016-12-21T04:08:39.747Z,-2.07
2016-12-21T04:09:49.222Z,-2.21
2016-12-21T04:10:59.081Z,-2.24
2016-12-21T04:12:08.282Z,-2.32
2016-12-21T04:13:17.756Z,-2.29
2016-12-21T04:14:27.572Z,-2.24
2016-12-21T04:15:37.345Z,-2.07
2016-12-21T04:16:47.160Z,-2.16
2016-12-21T04:17:56.933Z,-2.14
2016-12-21T04:19:06.719Z,-2.06
2016-12-21T04:20:16.498Z,-2.04
2016-12-21T04:21:26.282Z,-2.03
2016-12-21T04:22:36.111Z,-1.97
2016-12-21T04:23:45.588Z,-1.98
2016-12-21T04:24:55.387Z,-1.98
2016-12-21T04:26:05.197Z,-1.92
2016-12-21T04:27:14.423Z,-2.06
2016-12-21T04:28:24.215Z,-2
2016-12-21T04:29:33.754Z,-2.07
2016-12-21T04:30:43.569Z,-2.06
2016-12-21T04:31:53.342Z,-2.16
2016-12-21T04:33:03.164Z,-2.19
2016-12-21T04:34:12.638Z,-2.19
2016-12-21T04:35:22.136Z,-2.21
2016-12-21T04:36:31.949Z,-2.1
2016-12-21T04:37:41.750Z,-2.19
2016-12-21T04:38:51.300Z,-2.25
2016-12-21T04:40:00.809Z,-2.22
2016-12-21T04:41:10.650Z,-2.21
2016-12-21T04:42:20.117Z,-2.29
2016-12-21T04:43:29.584Z,-2.4
2016-12-21T04:44:39.386Z,-2.43
2016-12-21T04:45:49.211Z,-2.47
2016-12-21T04:46:58.986Z,-2.55
2016-12-21T04:48:08.518Z,-2.4
2016-12-21T04:49:18.301Z,-2.39
2016-12-21T04:50:28.148Z,-2.4
2016-12-21T04:51:37.953Z,-2.33
2016-12-21T04:52:47.744Z,-2.29
2016-12-21T04:53:57.235Z,-2.24
2016-12-21T04:55:06.715Z,-2.28
2016-12-21T04:56:16.531Z,-2.08
2016-12-21T04:57:26.001Z,-2.14
2016-12-21T04:58:35.476Z,-2.24
2016-12-21T04:59:45.321Z,-2.12
2016-12-21T05:00:55.133Z,-2.18
2016-12-21T05:02:05.010Z,-2.21
2016-12-21T05:03:14.828Z,-2.14
2016-12-21T05:04:24.632Z,-2.15
2016-12-21T05:05:33.836Z,-2.04
2016-12-21T05:06:43.310Z,-2.06
2016-12-21T05:07:53.113Z,-2.01
2016-12-21T05:09:02.272Z,-2.1
2016-12-21T05:10:11.431Z,-2.06
2016-12-21T05:11:20.940Z,-2.01
2016-12-21T05:12:30.735Z,-2.03
2016-12-21T05:13:40.203Z,-1.97
2016-12-21T05:14:49.999Z,-2.06
2016-12-21T05:15:59.795Z,-2.15
2016-12-21T05:17:08.655Z,-2.07
2016-12-21T05:18:18.529Z,-2.15
2016-12-21T05:19:28.308Z,-2.16
2016-12-21T05:20:37.838Z,-2.16
2016-12-21T05:21:47.617Z,-2.07
2016-12-21T05:22:57.153Z,-2.19
2016-12-21T05:24:06.947Z,-2.21
2016-12-21T05:25:16.785Z,-2.1
2016-12-21T05:26:26.313Z,-2.16
2016-12-21T05:27:36.192Z,-2.1
2016-12-21T05:28:45.668Z,-2.14
2016-12-21T05:29:55.195Z,-2.19
2016-12-21T05:31:04.666Z,-2.16
2016-12-21T05:32:14.153Z,-2.1
2016-12-21T05:33:23.645Z,-2.12
2016-12-21T05:34:32.500Z,-2.15
2016-12-21T05:35:42.287Z,-2.18
2016-12-21T05:36:52.066Z,-2.22
2016-12-21T05:38:01.841Z,-2.06
2016-12-21T05:39:11.633Z,-2.1
2016-12-21T05:40:21.434Z,-2.15
2016-12-21T05:41:30.903Z,-2.06
2016-12-21T05:42:40.818Z,-2.1
2016-12-21T05:43:50.317Z,-2.06
2016-12-21T05:44:59.860Z,-2.04
2016-12-21T05:46:09.690Z,-2.04
2016-12-21T05:47:19.498Z,-2.01
2016-12-21T05:48:28.970Z,-2.04
2016-12-21T05:49:38.466Z,-1.96
2016-12-21T05:50:47.981Z,-1.94
2016-12-21T05:51:57.462Z,-1.92
2016-12-21T05:53:07.537Z,-1.97
2016-12-21T05:54:16.996Z,-1.82
2016-12-21T05:55:26.781Z,-2.03
2016-12-21T05:56:35.959Z,-1.9
2016-12-21T05:57:45.769Z,-1.92
2016-12-21T05:58:55.258Z,-2.06
2016-12-21T06:00:04.837Z,-2.16
2016-12-21T06:01:14.499Z,-2.14
2016-12-21T06:02:24.317Z,-2.1
2016-12-21T06:03:33.804Z,-2.19
2016-12-21T06:04:43.319Z,-2.14
2016-12-21T06:05:53.168Z,-2.12
2016-12-21T06:07:02.951Z,-2.12
2016-12-21T06:07:57.679Z,-2
2016-12-21T06:09:07.497Z,-2.08
2016-12-21T06:10:16.981Z,-2.15
2016-12-21T06:11:26.148Z,-2.16
2016-12-21T06:12:35.337Z,-2.19
2016-12-21T06:13:45.164Z,-2.07
2016-12-21T06:14:54.639Z,-2.25
2016-12-21T06:16:04.482Z,-2.24
2016-12-21T06:17:14.331Z,-2.32
2016-12-21T06:18:24.189Z,-2.25
2016-12-21T06:19:33.648Z,-2.39
2016-12-21T06:20:43.619Z,-2.42
2016-12-21T06:21:53.408Z,-2.37
2016-12-21T06:23:02.886Z,-2.32
2016-12-21T06:24:12.678Z,-2.28
2016-12-21T06:25:22.173Z,-2.26
2016-12-21T06:26:31.673Z,-2.22
2016-12-21T06:27:41.490Z,-2.24
2016-12-21T06:28:51.299Z,-2.22
2016-12-21T06:30:00.891Z,-2.26
2016-12-21T06:31:10.744Z,-2.16
2016-12-21T06:32:20.540Z,-2.28
2016-12-21T06:33:29.403Z,-2.43
2016-12-21T06:34:38.893Z,-2.5
2016-12-21T06:35:48.713Z,-2.68
2016-12-21T06:36:58.315Z,-2.76
2016-12-21T06:38:07.791Z,-2.86
2016-12-21T06:39:17.595Z,-2.8
2016-12-21T06:40:26.852Z,-2.86
2016-12-21T06:41:36.352Z,-2.91
2016-12-21T06:42:45.836Z,-2.94
2016-12-21T06:43:55.632Z,-2.95
2016-12-21T06:45:04.787Z,-2.97
2016-12-21T06:46:14.387Z,-3.04
2016-12-21T06:47:23.571Z,-3.02
2016-12-21T06:48:33.029Z,-2.94
2016-12-21T06:49:42.813Z,-2.92
2016-12-21T06:50:52.277Z,-2.91
2016-12-21T06:52:02.165Z,-2.89
2016-12-21T06:53:11.341Z,-2.94
2016-12-21T06:54:21.126Z,-2.97
2016-12-21T06:55:30.581Z,-2.94
2016-12-21T06:56:40.052Z,-2.92
2016-12-21T06:57:49.854Z,-2.83
2016-12-21T06:58:59.323Z,-2.86
2016-12-21T07:00:09.112Z,-2.97
2016-12-21T07:01:18.933Z,-2.86
2016-12-21T07:02:28.524Z,-2.89
2016-12-21T07:03:37.998Z,-2.89
2016-12-21T07:04:47.910Z,-2.84
2016-12-21T07:05:57.453Z,-2.91
2016-12-21T07:07:07.263Z,-2.95
2016-12-21T07:08:17.116Z,-2.92
2016-12-21T07:09:27.017Z,-2.89
2016-12-21T07:10:36.494Z,-2.98
2016-12-21T07:11:46.321Z,-2.94
2016-12-21T07:12:56.146Z,-2.91
2016-12-21T07:14:05.955Z,-2.89
2016-12-21T07:15:15.787Z,-2.98
2016-12-21T07:16:25.600Z,-3.08
2016-12-21T07:17:34.462Z,-3.17
2016-12-21T07:18:44.314Z,-3.27
2016-12-21T07:19:54.112Z,-3.22
2016-12-21T07:21:03.912Z,-3.27
2016-12-21T07:22:13.079Z,-3.3
2016-12-21T07:23:22.580Z,-3.26
2016-12-21T07:24:32.404Z,-3.22
2016-12-21T07:25:42.209Z,-3.13
2016-12-21T07:26:52.003Z,-3.04
2016-12-21T07:28:01.813Z,-3.05
2016-12-21T07:29:11.617Z,-3.09
2016-12-21T07:30:21.508Z,-3.02
2016-12-21T07:31:31.310Z,-3.01
2016-12-21T07:32:40.849Z,-3.05
2016-12-21T07:33:50.627Z,-3.01
2016-12-21T07:35:00.164Z,-2.95
2016-12-21T07:36:09.997Z,-2.99
2016-12-21T07:37:19.324Z,-3.01
2016-12-21T07:38:29.105Z,-3.02
2016-12-21T07:39:38.330Z,-3.1
2016-12-21T07:40:48.155Z,-3.12
2016-12-21T07:41:57.947Z,-3.22
2016-12-21T07:43:07.422Z,-3.26
2016-12-21T07:44:17.214Z,-3.28
2016-12-21T07:45:26.694Z,-3.22
2016-12-21T07:46:36.518Z,-3.35
2016-12-21T07:47:46.297Z,-3.33
2016-12-21T07:48:55.798Z,-3.33
2016-12-21T07:50:05.261Z,-3.22
2016-12-21T07:51:15.196Z,-3.17
2016-12-21T07:52:24.970Z,-3.08
2016-12-21T07:53:34.774Z,-3.02
2016-12-21T07:54:43.930Z,-3.02
2016-12-21T07:55:53.803Z,-3.05
2016-12-21T07:57:03.592Z,-3.04
2016-12-21T07:58:13.390Z,-2.99
2016-12-21T07:59:23.170Z,-2.89
2016-12-21T08:00:32.648Z,-2.84
2016-12-21T08:01:42.442Z,-2.94
2016-12-21T08:02:51.924Z,-2.92
2016-12-21T08:04:01.754Z,-2.83
2016-12-21T08:05:11.550Z,-2.84
2016-12-21T08:06:21.329Z,-2.83
2016-12-21T08:07:30.835Z,-2.8
2016-12-21T08:08:40.606Z,-2.62
2016-12-21T08:09:50.163Z,-2.68
2016-12-21T08:10:59.976Z,-2.61
2016-12-21T08:12:09.482Z,-2.68
2016-12-21T08:13:19.001Z,-2.64
2016-12-21T08:14:28.788Z,-2.6
2016-12-21T08:15:38.293Z,-2.65
2016-12-21T08:16:47.456Z,-2.58
2016-12-21T08:17:56.956Z,-2.6
2016-12-21T08:19:06.728Z,-2.58
2016-12-21T08:20:16.729Z,-2.5
2016-12-21T08:21:26.221Z,-2.43
2016-12-21T08:22:36.004Z,-2.39
2016-12-21T08:23:45.518Z,-2.43
2016-12-21T08:24:55.008Z,-2.47
2016-12-21T08:26:04.509Z,-2.29
2016-12-21T08:27:14.338Z,-2.24
2016-12-21T08:28:24.267Z,-2.26
2016-12-21T08:29:34.108Z,-2.26
2016-12-21T08:30:43.308Z,-2.18
2016-12-21T08:31:53.105Z,-2.25
2016-12-21T08:33:02.594Z,-2.18
2016-12-21T08:34:12.392Z,-2.1
2016-12-21T08:35:22.373Z,-2.15
2016-12-21T08:36:32.303Z,-1.97
2016-12-21T08:37:41.797Z,-2.08
2016-12-21T08:38:50.673Z,-2
2016-12-21T08:40:00.192Z,-1.97
2016-12-21T08:41:09.966Z,-1.86
2016-12-21T08:42:19.427Z,-1.75
2016-12-21T08:43:28.921Z,-1.72
2016-12-21T08:44:38.694Z,-1.54
2016-12-21T08:45:47.853Z,-1.6
2016-12-21T08:46:57.661Z,-1.5
2016-12-21T08:48:07.514Z,-1.43
2016-12-21T08:49:17.363Z,-1.46
2016-12-21T08:50:27.165Z,-1.47
2016-12-21T08:51:36.336Z,-1.42
2016-12-21T08:52:45.564Z,-1.31
2016-12-21T08:53:55.060Z,-1.23
2016-12-21T08:55:04.693Z,-1.06
2016-12-21T08:56:14.193Z,-0.92
2016-12-21T08:57:23.711Z,-0.98
2016-12-21T08:58:33.234Z,-0.96
2016-12-21T08:59:42.710Z,-0.84
2016-12-21T09:00:52.800Z,-0.88
2016-12-21T09:02:02.627Z,-0.87
2016-12-21T09:03:12.241Z,-0.85
2016-12-21T09:04:21.412Z,-0.76
2016-12-21T09:05:30.575Z,-0.7
2016-12-21T09:06:40.375Z,-0.63
2016-12-21T09:07:50.208Z,-0.63
2016-12-21T09:08:59.807Z,-0.55
2016-12-21T09:10:09.016Z,-0.59
2016-12-21T09:11:18.818Z,-0.58
2016-12-21T09:12:28.595Z,-0.66
2016-12-21T09:13:38.407Z,-0.7
2016-12-21T09:14:47.920Z,-0.7
2016-12-21T09:15:57.778Z,-0.82
2016-12-21T09:17:07.592Z,-0.77
2016-12-21T09:18:17.411Z,-0.78
2016-12-21T09:19:27.230Z,-0.85
2016-12-21T09:20:37.047Z,-0.85
2016-12-21T09:21:46.862Z,-0.78
2016-12-21T09:22:56.343Z,-0.82
2016-12-21T09:24:05.881Z,-0.73
2016-12-21T09:25:15.688Z,-0.74
2016-12-21T09:26:25.170Z,-0.74
2016-12-21T09:27:35.174Z,-0.77
2016-12-21T09:28:44.665Z,-0.78
2016-12-21T09:29:54.172Z,-0.77
2016-12-21T09:31:03.360Z,-0.77
2016-12-21T09:32:13.261Z,-0.78
2016-12-21T09:33:22.737Z,-0.7
2016-12-21T09:34:32.247Z,-0.63
2016-12-21T09:35:41.817Z,-0.71
2016-12-21T09:36:51.309Z,-0.64
2016-12-21T09:38:01.209Z,-0.55
2016-12-21T09:39:11.015Z,-0.56
2016-12-21T09:40:20.838Z,-0.46
2016-12-21T09:41:30.327Z,-0.45
2016-12-21T09:42:40.115Z,-0.33
2016-12-21T09:43:49.707Z,-0.28
2016-12-21T09:44:59.530Z,-0.23
2016-12-21T09:46:09.341Z,-0.15
2016-12-21T09:47:18.855Z,-0.19
2016-12-21T09:48:28.672Z,-0.1
2016-12-21T09:49:38.484Z,-0.04
2016-12-21T09:50:48.292Z,-0.06
2016-12-21T09:51:58.113Z,-0.09
2016-12-21T09:53:07.962Z,-0.1
2016-12-21T09:54:17.760Z,-0.17
2016-12-21T09:55:27.333Z,-0.17
2016-12-21T09:56:37.107Z,-0.02
2016-12-21T09:57:46.657Z,0.28
2016-12-21T09:58:56.181Z,0.68
2016-12-21T10:00:06.100Z,1.02
2016-12-21T10:01:15.902Z,1.33
2016-12-21T10:02:25.106Z,1.76
2016-12-21T10:03:34.892Z,2.1
2016-12-21T10:04:44.770Z,2.51
2016-12-21T10:05:53.971Z,2.87
2016-12-21T10:07:03.454Z,3.04
2016-12-21T10:08:13.105Z,3.42
2016-12-21T10:09:22.932Z,3.52
2016-12-21T10:10:32.133Z,3.67
2016-12-21T10:11:41.924Z,3.79
2016-12-21T10:12:51.752Z,4.11
2016-12-21T10:14:00.949Z,4.37
2016-12-21T10:15:10.508Z,4.74
2016-12-21T10:16:20.322Z,5
2016-12-21T10:17:30.174Z,5.16
2016-12-21T10:18:39.986Z,5.36
2016-12-21T10:19:49.901Z,5.61
2016-12-21T10:20:59.695Z,5.75
2016-12-21T10:22:09.201Z,5.98
2016-12-21T10:23:18.713Z,6.19
2016-12-21T10:24:28.628Z,6.31
2016-12-21T10:25:38.148Z,6.48
2016-12-21T10:26:47.985Z,6.6
2016-12-21T10:27:57.149Z,6.72
2016-12-21T10:29:06.804Z,6.77
2016-12-21T10:30:16.589Z,6.9
2016-12-21T10:31:26.165Z,6.93
2016-12-21T10:32:35.956Z,6.95
2016-12-21T10:33:45.783Z,7.03
2016-12-21T10:34:54.948Z,6.97
2016-12-21T10:36:04.826Z,7
2016-12-21T10:37:14.342Z,7
2016-12-21T10:38:23.855Z,7.03
2016-12-21T10:39:33.751Z,7.11
2016-12-21T10:40:43.570Z,7.2
2016-12-21T10:41:53.048Z,7.2
2016-12-21T10:43:02.532Z,7.24
2016-12-21T10:44:12.436Z,7.31
2016-12-21T10:45:22.279Z,7.43
2016-12-21T10:46:32.090Z,7.48
2016-12-21T10:47:41.264Z,7.51
2016-12-21T10:48:50.821Z,7.52
2016-12-21T10:50:00.313Z,7.58
2016-12-21T10:51:10.136Z,7.62
2016-12-21T10:52:19.982Z,7.67
2016-12-21T10:53:29.828Z,7.66
2016-12-21T10:54:39.694Z,7.48
2016-12-21T10:55:49.550Z,7.26
2016-12-21T10:56:59.068Z,7.24
2016-12-21T10:58:08.858Z,7.22
2016-12-21T10:59:18.672Z,7.31
2016-12-21T11:00:27.842Z,7.47
2016-12-21T11:01:36.714Z,7.58
2016-12-21T11:02:46.532Z,7.74
2016-12-21T11:03:56.121Z,7.77
2016-12-21T11:05:05.907Z,7.87
2016-12-21T11:06:15.725Z,8.07
2016-12-21T11:07:25.524Z,8.24
2016-12-21T11:08:35.329Z,8.28
2016-12-21T11:09:45.160Z,8.34
2016-12-21T11:10:54.681Z,8.43
2016-12-21T11:12:04.586Z,8.4
2016-12-21T11:13:14.386Z,8.39
2016-12-21T11:14:23.881Z,8.3
2016-12-21T11:15:33.423Z,8.03
2016-12-21T11:16:43.241Z,7.95
2016-12-21T11:17:52.769Z,7.92
2016-12-21T11:19:02.627Z,8.03
2016-12-21T11:20:12.126Z,8.05
2016-12-21T11:21:21.974Z,8.02
2016-12-21T11:22:31.788Z,7.98
2016-12-21T11:23:41.579Z,7.76
2016-12-21T11:24:50.796Z,7.59
2016-12-21T11:26:00.625Z,7.26
2016-12-21T11:27:10.165Z,7
2016-12-21T11:28:19.667Z,6.63
2016-12-21T11:29:29.256Z,6.28
2016-12-21T11:30:39.052Z,6.12
2016-12-21T11:31:48.854Z,6.02
2016-12-21T11:32:58.643Z,5.98
2016-12-21T11:34:08.497Z,5.71
2016-12-21T11:35:17.983Z,5.72
2016-12-21T11:36:27.501Z,5.67
2016-12-21T11:37:37.323Z,5.75
2016-12-21T11:38:46.570Z,5.65
2016-12-21T11:39:56.109Z,5.5
2016-12-21T11:41:06.174Z,5.5
2016-12-21T11:42:15.966Z,5.44
2016-12-21T11:43:25.875Z,5.28
2016-12-21T11:44:35.380Z,5.28
2016-12-21T11:45:45.295Z,5.11
2016-12-21T11:46:55.092Z,5.06
2016-12-21T11:48:04.995Z,4.78
2016-12-21T11:49:14.777Z,4.77
2016-12-21T11:50:24.640Z,4.57
2016-12-21T11:51:34.430Z,4.57
2016-12-21T11:52:43.941Z,4.41
2016-12-21T11:53:53.783Z,4.31
2016-12-21T11:55:03.297Z,4.25
2016-12-21T11:56:12.801Z,4.19
2016-12-21T11:57:22.288Z,4.08
2016-12-21T11:58:32.107Z,4.03
2016-12-21T11:59:41.606Z,3.86
2016-12-21T12:00:51.152Z,3.75
2016-12-21T12:02:00.636Z,3.64
2016-12-21T12:03:10.490Z,3.61
2016-12-21T12:04:19.989Z,3.62
2016-12-21T12:05:29.780Z,3.62
2016-12-21T12:06:39.623Z,3.54
2016-12-21T12:07:49.461Z,3.43
2016-12-21T12:08:58.704Z,3.4
2016-12-21T12:10:08.237Z,3.25
2016-12-21T12:11:18.058Z,3.13
2016-12-21T12:12:27.878Z,3.16
2016-12-21T12:13:37.673Z,3.04
2016-12-21T12:14:47.463Z,3.15
2016-12-21T12:15:56.993Z,3.1
2016-12-21T12:17:06.807Z,3.02
2016-12-21T12:18:16.678Z,2.94
2016-12-21T12:19:26.488Z,3.02
2016-12-21T12:20:36.274Z,3
2016-12-21T12:21:45.832Z,3.06
2016-12-21T12:22:55.679Z,3
2016-12-21T12:24:05.595Z,3.02
2016-12-21T12:25:15.093Z,2.92
2016-12-21T12:26:56.709Z,2.82
2016-12-21T12:28:06.556Z,2.91
2016-12-21T12:29:16.427Z,2.81
2016-12-21T12:30:26.233Z,2.85
2016-12-21T12:31:36.063Z,2.81
2016-12-21T12:32:45.633Z,2.85
2016-12-21T12:33:55.292Z,2.92
2016-12-21T12:35:04.818Z,2.89
2016-12-21T12:36:14.019Z,2.85
2016-12-21T12:37:23.536Z,2.78
2016-12-21T12:38:33.022Z,2.7
2016-12-21T12:39:42.506Z,2.7
2016-12-21T12:40:52.005Z,2.71
2016-12-21T12:42:01.831Z,2.7
2016-12-21T12:43:11.635Z,2.79
2016-12-21T12:44:21.117Z,2.79
2016-12-21T12:45:30.336Z,2.88
2016-12-21T12:46:40.135Z,2.88
2016-12-21T12:47:49.671Z,2.87
2016-12-21T12:49:00.425Z,2.78
2016-12-21T12:50:10.267Z,2.74
2016-12-21T12:51:19.895Z,2.52
2016-12-21T12:52:29.400Z,2.55
2016-12-21T12:53:39.313Z,2.48
2016-12-21T12:54:48.802Z,2.48
2016-12-21T12:55:58.354Z,2.39
2016-12-21T12:57:08.172Z,2.37
2016-12-21T12:58:17.668Z,2.33
2016-12-21T12:59:27.167Z,2.34
2016-12-21T13:00:36.493Z,2.31
2016-12-21T13:01:46.280Z,2.41
2016-12-21T13:02:55.451Z,2.28
2016-12-21T13:04:05.346Z,2.3
2016-12-21T13:05:15.179Z,2.26
2016-12-21T13:06:24.709Z,2.26
2016-12-21T13:07:34.293Z,2.19
2016-12-21T13:08:44.109Z,2.21
2016-12-21T13:09:53.320Z,2.21
2016-12-21T13:11:02.808Z,2.23
2016-12-21T13:12:12.600Z,2.27
2016-12-21T13:13:22.072Z,2.21
2016-12-21T13:14:31.583Z,2.24
2016-12-21T13:15:41.062Z,2.28
2016-12-21T13:16:50.238Z,2.28
2016-12-21T13:17:59.767Z,2.26
2016-12-21T13:19:08.950Z,2.33
2016-12-21T13:20:18.833Z,2.41
2016-12-21T13:21:28.335Z,2.37
2016-12-21T13:22:38.133Z,2.3
2016-12-21T13:23:47.604Z,2.33
2016-12-21T13:24:57.480Z,2.33
2016-12-21T13:26:07.265Z,2.39
2016-12-21T13:27:17.121Z,2.44
2016-12-21T13:28:26.936Z,2.36
2016-12-21T13:29:36.743Z,2.34
2016-12-21T13:30:46.533Z,2.42
2016-12-21T13:31:56.017Z,2.36
2016-12-21T13:33:05.483Z,2.3
2016-12-21T13:34:15.316Z,2.24
2016-12-21T13:35:24.517Z,2.21
2016-12-21T13:36:34.314Z,2.12
2016-12-21T13:37:43.796Z,2.1
2016-12-21T13:38:53.633Z,2.03
2016-12-21T13:40:03.422Z,1.92
2016-12-21T13:41:12.939Z,1.91
2016-12-21T13:42:22.161Z,1.98
2016-12-21T13:43:31.975Z,1.87
2016-12-21T13:44:41.839Z,1.77
2016-12-21T13:45:51.347Z,1.72
2016-12-21T13:47:01.149Z,1.87
2016-12-21T13:48:10.983Z,1.8
2016-12-21T13:49:20.152Z,1.74
2016-12-21T13:50:29.615Z,1.73
2016-12-21T13:51:39.498Z,1.84
2016-12-21T13:52:49.317Z,1.85
2016-12-21T13:53:58.528Z,1.74
2016-12-21T13:55:08.332Z,1.67
2016-12-21T13:56:17.528Z,1.72
2016-12-21T13:57:27.352Z,1.72
2016-12-21T13:58:37.142Z,1.53
2016-12-21T13:59:46.983Z,1.53
2016-12-21T14:00:56.865Z,1.6
2016-12-21T14:02:06.059Z,1.53
2016-12-21T14:03:15.544Z,1.53
2016-12-21T14:04:25.333Z,1.48
2016-12-21T14:05:35.175Z,1.46
2016-12-21T14:06:44.709Z,1.43
2016-12-21T14:07:54.498Z,1.39
2016-12-21T14:09:04.047Z,1.35
2016-12-21T14:10:13.518Z,1.33
2016-12-21T14:11:23.036Z,1.39
2016-12-21T14:12:32.815Z,1.35
2016-12-21T14:13:42.301Z,1.32
2016-12-21T14:14:52.111Z,1.33
2016-12-21T14:16:01.936Z,1.35
2016-12-21T14:17:11.729Z,1.32
2016-12-21T14:18:21.542Z,1.33
2016-12-21T14:19:31.037Z,1.32
2016-12-21T14:20:40.254Z,1.33
2016-12-21T14:21:49.882Z,1.33
2016-12-21T14:22:59.365Z,1.32
2016-12-21T14:24:09.156Z,1.38
2016-12-21T14:25:18.667Z,1.33
2016-12-21T14:26:28.154Z,1.35
2016-12-21T14:27:37.986Z,1.3
2016-12-21T14:28:47.463Z,1.25
2016-12-21T14:29:56.945Z,1.3
2016-12-21T14:31:06.760Z,1.2
2016-12-21T14:32:16.611Z,1.17
2016-12-21T14:33:26.414Z,1.18
2016-12-21T14:34:35.890Z,1.18
2016-12-21T14:35:45.418Z,1.22
2016-12-21T14:36:55.217Z,1.21
2016-12-21T14:38:04.731Z,1.21
2016-12-21T14:39:14.349Z,1.15
2016-12-21T14:40:23.842Z,1.2
2016-12-21T14:41:33.655Z,1.15
2016-12-21T14:42:43.527Z,1.1
2016-12-21T14:43:52.759Z,1.1
2016-12-21T14:45:01.952Z,1.04
2016-12-21T14:46:11.456Z,1.02
2016-12-21T14:47:21.248Z,1.04
2016-12-21T14:48:30.799Z,1.04
2016-12-21T14:49:39.668Z,1.15
2016-12-21T14:50:49.175Z,1.14
2016-12-21T14:51:58.680Z,1.1
2016-12-21T14:53:07.553Z,1.12
2016-12-21T14:54:17.383Z,1.11
2016-12-21T14:55:26.901Z,0.99
2016-12-21T14:56:36.825Z,1.04
2016-12-21T14:57:46.768Z,1.02
2016-12-21T14:58:56.591Z,1.06
2016-12-21T15:00:06.393Z,1.02
2016-12-21T15:01:16.222Z,1.03
2016-12-21T15:02:26.031Z,0.94
2016-12-21T15:03:35.830Z,0.97
2016-12-21T15:04:45.683Z,0.97
2016-12-21T15:05:55.656Z,1.03
2016-12-21T15:07:05.445Z,0.94
2016-12-21T15:08:14.995Z,0.93
2016-12-21T15:09:23.882Z,0.99
2016-12-21T15:10:33.411Z,0.94